BKDO2: Broken Bow Lake

Data processed at Sat Mar 23 2019 21:14


All information presented herein is the property of the government of the United States of America and may be revised or deleted at any time without prior notice.
Dissemination of this information without the expressed written consent of the Public Affairs Office, Tulsa District U.S. Army Corps of Engineers is strictly prohibited.
These data are gathered electronically and, as presented, have not undergone any form of quality control. These data are not guaranteed to be valid or correct.
Go to home page.
Go to station list.
Go to home page.

Upstream stations:

Downstream station:
Previous Day
Next Day
Current Day
    
SHEF ID:       BKDO2     Broken Bow Lake
STATION TYPE:  RESERVOIR
Flood Pool:  Bottom =   599.50, Top =   627.50

               PRECIP ELEVATION   STORAGE   TW-ELEV    INFLOW   RELEASE  AIR-TEMP  WIND-DIRWIND-SPEED REL-HUMID SOLAR-RAD   VOLTAGE  BAT-LOAD
                   in        ft     ac-ft        ft       cfs       cfs         F       deg       mph         %      W/m2      volt      volt
              Ccp-Rev   Ccp-Rev   Ccp-Rev   Ccp-Rev  Rev-Regi  Rev-Regi   Ccp-Rev   Ccp-Rev   Ccp-Rev   Ccp-Rev   Ccp-Rev   Ccp-Rev   Ccp-Rev
(US/Central)
03/23 00:00      0.00    599.69    915931    401.38       945       119     51.85    341.10      0.01     73.25      1.00     13.03     12.65
03/23 01:00      0.00    599.69    915931    401.38       925       119     52.95     32.00      0.13     75.69      0.00     13.01     12.65
03/23 02:00      0.00    599.71    916201    401.38       644       119     52.97     93.20      0.01     66.54      1.00     13.00     12.65
03/23 03:00      0.00    599.70    916066    401.38       623       119     54.84    235.10      0.34     50.73      1.00     12.97     12.65
03/23 04:00      0.00    599.70    916066    401.38       603       119     52.30    170.00      1.06     53.30      1.00     12.96     12.60
03/23 05:00      0.00    599.71    916201    401.38       322       119     49.66    214.00      0.91     64.64      1.00     12.94     12.60
03/23 06:00      0.00    599.69    915931    401.38       342       119     51.21    194.90      0.59     60.86      1.00     12.90     12.60
03/23 07:00      0.00    599.70    916066    401.38       623       119     51.64    192.40      0.43     59.70      1.00     12.90     12.54
03/23 08:00      0.00    599.70    916066    401.38       925       119     52.63    149.70      0.54     56.83     20.00     12.90     12.54
03/23 09:00      0.00    599.71    916201    401.38       945       119     53.29    220.10      1.01     59.82     69.00     12.97     12.54
03/23 10:00      0.00    599.72    916336    401.38       644       119     54.50    155.90      0.97     58.91    100.00     13.11     12.60
03/23 11:00      0.00    599.72    916336    401.38       644       119     56.05    158.80      0.84     56.72    159.00     13.38     12.71
03/23 12:00      0.00    599.71    916201    401.38       363       119     59.77    152.20      1.38     54.58    379.00     13.88     12.95
03/23 13:00      0.00    599.71    916201    401.38        82       119     63.07    181.00      1.85     52.56    487.00     13.62     13.36
03/23 14:00      0.00    599.71    916201    401.38        82       119     67.14    174.60      4.17     46.15    691.00     14.40     13.71
03/23 15:00      0.00    599.72    916336    401.38       664       119     67.24    168.70      3.92     42.73    184.00     13.44     13.48
03/23 16:00      0.00    599.71    916201    401.38       664       119     67.59    173.70      3.41     40.66    140.00     13.47     13.00
03/23 17:00      0.00    599.73    916470    401.38       664       119     67.78    172.90      3.44     42.06     81.00     13.24     13.07
03/23 18:00      0.00    599.74    916605    401.38      1507       119     67.35    168.90      3.35     46.64     47.00     13.12     12.89
03/23 19:00      0.11    599.73    916470    401.38      1507       119     64.71    185.90      0.64     55.98      4.00     13.09     12.71
03/23 20:00      0.54    599.76    916875    401.39      2630       119     59.43    133.50      1.23     91.50      0.00     13.05     12.71
03/23 21:00      0.01    599.74    916605    401.39      ----      ----     57.45    137.20      0.22     98.77      0.00     13.05     12.65
03/23 22:00      ----      ----      ----      ----      ----      ----      ----      ----      ----      ----      ----      ----      ----
03/23 23:00      ----      ----      ----      ----      ----      ----      ----      ----      ----      ----      ----      ----      ----